createdAt,value
2022-08-11T00:01:27.990Z,70.51
2022-08-11T00:03:59.306Z,67.92
2022-08-11T00:06:32.272Z,68.93
2022-08-11T00:09:05.185Z,70.51
2022-08-11T00:11:39.245Z,71.41
2022-08-11T00:14:20.532Z,70.60
2022-08-11T00:17:00.672Z,70.05
2022-08-11T00:20:14.652Z,70.46
2022-08-11T00:22:25.976Z,71.88
2022-08-11T00:24:59.984Z,70.89
2022-08-11T00:27:37.847Z,73.71
2022-08-11T00:30:07.968Z,72.14
2022-08-11T00:32:40.170Z,71.48
2022-08-11T00:35:55.087Z,73.02
2022-08-11T00:38:09.013Z,71.65
2022-08-11T00:40:45.953Z,73.25
2022-08-11T00:43:25.479Z,73.45
2022-08-11T00:46:17.279Z,75.34
2022-08-11T00:49:03.280Z,73.97
2022-08-11T00:52:04.595Z,75.34
2022-08-11T00:55:11.640Z,73.80
2022-08-11T00:58:56.439Z,72.43
2022-08-11T01:01:56.606Z,73.44
2022-08-11T01:05:15.197Z,74.55
2022-08-11T01:08:39.711Z,75.56
2022-08-11T01:12:15.661Z,76.30
2022-08-11T01:15:57.326Z,76.34
2022-08-11T01:19:17.822Z,76.38
2022-08-11T01:22:53.778Z,78.73
2022-08-11T01:26:19.886Z,78.08
2022-08-11T01:29:31.063Z,80.04
2022-08-11T01:33:02.597Z,80.01
2022-08-11T01:36:21.129Z,80.32
2022-08-11T01:39:33.372Z,81.80
2022-08-11T01:43:38.473Z,82.71
2022-08-11T01:46:17.381Z,83.44
2022-08-11T01:49:02.155Z,81.45
2022-08-11T01:52:14.355Z,83.68
2022-08-11T01:54:50.812Z,84.12
2022-08-11T01:57:36.703Z,86.31
2022-08-11T02:00:15.320Z,85.78
2022-08-11T02:02:54.969Z,87.34
2022-08-11T02:06:01.159Z,83.71
2022-08-11T02:08:50.399Z,85.27
2022-08-11T02:11:31.615Z,87.71
2022-08-11T02:14:22.777Z,89.21
2022-08-11T02:17:12.935Z,89.34
2022-08-11T02:20:13.581Z,89.55
2022-08-11T02:23:14.261Z,89.37
2022-08-11T02:26:15.729Z,88.70
2022-08-11T02:29:06.766Z,88.51
2022-08-11T02:32:24.727Z,89.08
2022-08-11T02:35:13.714Z,85.70
2022-08-11T02:38:02.447Z,87.69
2022-08-11T02:40:44.099Z,88.00
2022-08-11T02:43:31.128Z,90.29
2022-08-11T02:46:19.926Z,89.48
2022-08-11T02:49:18.836Z,91.74
2022-08-11T02:52:06.922Z,88.39
2022-08-11T02:54:46.089Z,88.27
2022-08-11T02:57:23.469Z,89.61
2022-08-11T03:00:01.516Z,89.29
2022-08-11T03:03:16.351Z,92.56
2022-08-11T03:06:00.182Z,89.92
2022-08-11T03:08:51.471Z,93.28
2022-08-11T03:11:57.744Z,91.76
2022-08-11T03:14:52.045Z,90.37
2022-08-11T03:17:33.745Z,91.97
2022-08-11T03:20:24.401Z,92.08
2022-08-11T03:23:26.010Z,94.25
2022-08-11T03:26:07.019Z,93.46
2022-08-11T03:28:46.271Z,91.28
2022-08-11T03:31:28.453Z,94.14
2022-08-11T03:34:07.287Z,95.58
2022-08-11T03:37:16.592Z,97.73
2022-08-11T03:40:04.673Z,96.00
2022-08-11T03:42:46.608Z,95.42
2022-08-11T03:45:35.255Z,96.23
2022-08-11T03:48:21.046Z,98.77
2022-08-11T03:51:08.180Z,98.01
2022-08-11T03:54:07.044Z,100.00
2022-08-11T03:57:42.616Z,97.64
2022-08-11T04:00:51.303Z,98.90
2022-08-11T04:03:58.493Z,98.03
2022-08-11T04:07:17.913Z,99.65
2022-08-11T04:10:29.797Z,98.90
2022-08-11T04:14:22.299Z,98.48
2022-08-11T04:17:19.745Z,98.48
2022-08-11T04:20:29.357Z,96.62
2022-08-11T04:24:36.677Z,97.82
2022-08-11T04:27:42.418Z,94.69
2022-08-11T04:30:17.964Z,98.80
2022-08-11T04:33:41.334Z,100.00
2022-08-11T04:37:04.464Z,100.00
2022-08-11T04:40:05.395Z,100.00
2022-08-11T04:44:05.907Z,100.00
2022-08-11T04:47:08.100Z,100.00
2022-08-11T04:50:29.058Z,98.31
2022-08-11T04:53:46.301Z,100.00
2022-08-11T04:56:45.246Z,100.00
2022-08-11T05:00:23.701Z,99.99
2022-08-11T05:03:41.632Z,100.00
2022-08-11T05:07:03.838Z,100.00
2022-08-11T05:10:09.907Z,100.00
2022-08-11T05:12:49.515Z,97.73
2022-08-11T05:15:51.657Z,96.48
2022-08-11T05:18:43.060Z,95.09
2022-08-11T05:21:45.191Z,95.00
2022-08-11T05:24:41.236Z,95.03
2022-08-11T05:27:33.160Z,96.16
2022-08-11T05:30:26.702Z,100.00
2022-08-11T05:33:24.245Z,96.66
2022-08-11T05:36:08.661Z,97.25
2022-08-11T05:38:57.282Z,97.51
2022-08-11T05:41:48.559Z,98.17
2022-08-11T05:44:39.888Z,98.42
2022-08-11T05:47:28.552Z,100.00
2022-08-11T05:50:17.855Z,100.00
2022-08-11T05:53:18.879Z,100.00
2022-08-11T05:56:07.669Z,100.00
2022-08-11T05:58:42.616Z,100.00
2022-08-11T06:01:18.046Z,100.00
2022-08-11T06:04:12.419Z,100.00
2022-08-11T06:06:51.283Z,100.00
2022-08-11T06:09:32.930Z,100.00
2022-08-11T06:12:09.343Z,100.00
2022-08-11T06:14:46.086Z,100.00
2022-08-11T06:17:15.715Z,100.00
2022-08-11T06:19:49.748Z,100.00
2022-08-11T06:22:23.693Z,100.00
2022-08-11T06:24:58.758Z,97.07
2022-08-11T06:27:32.618Z,91.29
2022-08-11T06:30:13.349Z,91.85
2022-08-11T06:32:46.041Z,89.09
2022-08-11T06:35:30.585Z,86.76
2022-08-11T06:38:10.466Z,82.86
2022-08-11T06:41:12.081Z,79.47
2022-08-11T06:43:55.483Z,81.69
2022-08-11T06:46:33.505Z,80.67
2022-08-11T06:49:04.877Z,77.27
2022-08-11T06:51:38.469Z,77.07
2022-08-11T06:54:15.715Z,75.98
2022-08-11T06:57:28.935Z,74.10
2022-08-11T07:00:13.101Z,70.72
2022-08-11T07:02:53.663Z,69.87
2022-08-11T07:05:30.006Z,67.81
2022-08-11T07:09:03.792Z,66.10
2022-08-11T07:12:39.465Z,64.44
2022-08-11T07:16:11.203Z,63.55
2022-08-11T07:18:45.556Z,62.14
2022-08-11T07:22:01.757Z,61.81
2022-08-11T07:24:59.273Z,60.72
2022-08-11T07:28:01.385Z,59.57
2022-08-11T07:30:33.500Z,59.24
2022-08-11T07:33:04.720Z,55.77
2022-08-11T07:35:39.526Z,55.17
2022-08-11T07:38:22.539Z,55.50
2022-08-11T07:40:53.590Z,53.85
2022-08-11T07:43:22.612Z,53.30
2022-08-11T07:46:09.284Z,52.52
2022-08-11T07:48:55.970Z,51.81
2022-08-11T07:51:42.199Z,50.35
2022-08-11T07:54:17.211Z,50.38
2022-08-11T07:57:07.442Z,48.78
2022-08-11T08:00:03.344Z,48.39
2022-08-11T08:02:51.999Z,47.10
2022-08-11T08:05:39.549Z,45.72
2022-08-11T08:08:28.501Z,45.31
2022-08-11T08:11:15.936Z,44.96
2022-08-11T08:14:05.164Z,46.21
2022-08-11T08:16:52.736Z,45.00
2022-08-11T08:19:23.692Z,43.46
2022-08-11T08:21:53.114Z,44.23
2022-08-11T08:24:23.185Z,42.90
2022-08-11T08:27:02.336Z,42.78
2022-08-11T08:29:55.747Z,42.01
2022-08-11T08:32:27.846Z,39.98
2022-08-11T08:34:58.648Z,40.03
2022-08-11T08:37:45.898Z,39.11
2022-08-11T08:40:16.797Z,40.12
2022-08-11T08:42:55.075Z,39.02
2022-08-11T08:45:27.888Z,38.26
2022-08-11T08:48:05.267Z,36.83
2022-08-11T08:50:57.344Z,37.63
2022-08-11T08:53:34.466Z,36.97
2022-08-11T08:56:04.537Z,36.79
2022-08-11T08:58:37.519Z,36.62
2022-08-11T09:01:11.080Z,36.21
2022-08-11T09:04:06.715Z,36.07
2022-08-11T09:06:33.362Z,35.36
2022-08-11T09:09:03.170Z,34.95
2022-08-11T09:11:49.650Z,36.02
2022-08-11T09:14:19.946Z,35.18
2022-08-11T09:16:51.412Z,35.12
2022-08-11T09:19:22.442Z,34.39
2022-08-11T09:22:13.353Z,33.53
2022-08-11T09:25:00.135Z,33.54
2022-08-11T09:27:29.678Z,34.09
2022-08-11T09:29:59.867Z,33.81
2022-08-11T09:32:31.487Z,33.37
2022-08-11T09:35:04.662Z,32.07
2022-08-11T09:37:56.383Z,33.56
2022-08-11T09:40:33.711Z,32.89
2022-08-11T09:43:25.782Z,32.60
2022-08-11T09:45:56.545Z,32.15
2022-08-11T09:48:30.242Z,33.39
2022-08-11T09:51:02.375Z,31.61
2022-08-11T09:53:41.313Z,32.51
2022-08-11T09:56:33.654Z,32.49
2022-08-11T09:59:04.809Z,32.03
2022-08-11T10:01:41.752Z,31.88
2022-08-11T10:04:18.756Z,32.13
2022-08-11T10:07:04.612Z,32.44
2022-08-11T10:09:43.141Z,30.65
2022-08-11T10:12:18.034Z,29.26
2022-08-11T10:15:11.673Z,30.34
2022-08-11T10:18:07.041Z,31.19
2022-08-11T10:20:39.706Z,30.46
2022-08-11T10:24:01.472Z,28.90
2022-08-11T10:26:54.451Z,28.53
2022-08-11T10:29:50.053Z,29.31
2022-08-11T10:32:58.416Z,29.54
2022-08-11T10:35:30.630Z,28.68
2022-08-11T10:38:07.277Z,29.69
2022-08-11T10:40:41.801Z,30.03
2022-08-11T10:43:14.020Z,30.69
2022-08-11T10:46:05.067Z,29.34
2022-08-11T10:48:41.309Z,30.02
2022-08-11T10:51:50.065Z,29.02
2022-08-11T10:54:26.721Z,29.57
2022-08-11T10:57:14.489Z,28.04
2022-08-11T10:59:47.183Z,29.54
2022-08-11T11:02:18.924Z,29.37
2022-08-11T11:05:09.712Z,29.40
2022-08-11T11:07:59.956Z,28.33
2022-08-11T11:10:31.351Z,26.91
2022-08-11T11:13:18.930Z,26.47
2022-08-11T11:16:06.990Z,26.01
2022-08-11T11:18:37.878Z,25.27
2022-08-11T11:21:09.152Z,25.29
2022-08-11T11:23:47.324Z,25.14
2022-08-11T11:26:34.661Z,24.71
2022-08-11T11:29:27.549Z,26.47
2022-08-11T11:32:16.288Z,25.30
2022-08-11T11:35:05.553Z,25.08
2022-08-11T11:37:36.191Z,24.53
2022-08-11T11:40:11.417Z,25.92
2022-08-11T11:42:43.706Z,24.65
2022-08-11T11:45:22.773Z,25.53
2022-08-11T11:47:54.912Z,26.03
2022-08-11T11:50:31.475Z,24.84
2022-08-11T11:53:02.991Z,23.45
2022-08-11T11:55:32.686Z,26.80
2022-08-11T11:58:22.630Z,25.36
2022-08-11T12:01:10.988Z,25.60
2022-08-11T12:03:42.175Z,24.63
2022-08-11T12:06:14.681Z,24.43
2022-08-11T12:08:44.917Z,23.77
2022-08-11T12:11:32.354Z,21.85
2022-08-11T12:14:10.243Z,25.03
2022-08-11T12:16:42.451Z,23.68
2022-08-11T12:19:14.480Z,25.21
2022-08-11T12:21:59.472Z,24.37
2022-08-11T12:24:49.556Z,23.70
2022-08-11T12:27:25.335Z,21.74
2022-08-11T12:29:59.771Z,23.39
2022-08-11T12:32:33.628Z,23.35
2022-08-11T12:35:03.249Z,23.47
2022-08-11T12:37:36.413Z,22.62
2022-08-11T12:40:43.426Z,22.54
2022-08-11T12:43:39.541Z,22.73
2022-08-11T12:46:19.284Z,22.98
2022-08-11T12:49:08.398Z,22.63
2022-08-11T12:52:11.528Z,24.75
2022-08-11T12:54:51.639Z,23.80
2022-08-11T12:57:47.967Z,24.62
2022-08-11T13:00:35.974Z,23.80
2022-08-11T13:03:26.343Z,23.00
2022-08-11T13:05:58.527Z,22.71
2022-08-11T13:08:29.691Z,21.79
2022-08-11T13:11:19.169Z,22.25
2022-08-11T13:13:57.056Z,23.64
2022-08-11T13:16:30.281Z,22.63
2022-08-11T13:19:02.332Z,23.12
2022-08-11T13:21:32.389Z,23.52
2022-08-11T13:24:03.848Z,23.16
2022-08-11T13:26:36.931Z,21.61
2022-08-11T13:29:19.763Z,22.74
2022-08-11T13:31:49.915Z,23.97
2022-08-11T13:34:21.783Z,24.02
2022-08-11T13:36:53.216Z,22.82
2022-08-11T13:39:25.140Z,23.44
2022-08-11T13:41:59.402Z,22.40
2022-08-11T13:44:31.005Z,22.75
2022-08-11T13:47:04.090Z,23.68
2022-08-11T13:49:39.962Z,23.71
2022-08-11T13:52:14.814Z,23.13
2022-08-11T13:54:46.718Z,24.18
2022-08-11T13:58:06.198Z,23.47
2022-08-11T14:00:23.429Z,24.29
2022-08-11T14:02:59.168Z,23.26
2022-08-11T14:05:32.593Z,21.79
2022-08-11T14:08:04.773Z,23.83
2022-08-11T14:10:39.733Z,22.75
2022-08-11T14:13:41.306Z,22.45
2022-08-11T14:16:27.287Z,21.95
2022-08-11T14:19:01.325Z,23.50
2022-08-11T14:21:54.290Z,22.40
2022-08-11T14:24:25.143Z,23.20
2022-08-11T14:26:55.466Z,22.79
2022-08-11T14:29:27.492Z,21.75
2022-08-11T14:31:58.116Z,23.31
2022-08-11T14:34:30.228Z,23.33
2022-08-11T14:37:03.681Z,23.42
2022-08-11T14:39:36.102Z,23.05
2022-08-11T14:42:25.009Z,23.35
2022-08-11T14:45:57.406Z,24.06
2022-08-11T14:48:18.770Z,24.30
2022-08-11T14:50:48.905Z,23.65
2022-08-11T14:53:22.744Z,22.75
2022-08-11T14:56:10.661Z,22.71
2022-08-11T14:58:43.725Z,22.55
2022-08-11T15:01:27.175Z,23.10
2022-08-11T15:04:27.335Z,22.41
2022-08-11T15:06:49.899Z,22.77
2022-08-11T15:09:20.671Z,22.88
2022-08-11T15:12:07.465Z,22.72
2022-08-11T15:15:25.975Z,23.37
2022-08-11T15:17:56.499Z,23.04
2022-08-11T15:20:45.935Z,22.16
2022-08-11T15:23:33.248Z,23.68
2022-08-11T15:26:06.758Z,23.31
2022-08-11T15:29:09.327Z,23.44
2022-08-11T15:31:57.445Z,22.21
2022-08-11T15:34:48.663Z,21.85
2022-08-11T15:37:30.963Z,23.63
2022-08-11T15:40:32.868Z,23.93
2022-08-11T15:43:29.171Z,23.63
2022-08-11T15:46:02.407Z,22.40
2022-08-11T15:48:44.137Z,23.81
2022-08-11T15:51:25.216Z,23.80
2022-08-11T15:53:58.348Z,24.86
2022-08-11T15:56:32.925Z,24.01
2022-08-11T15:59:42.889Z,23.15
2022-08-11T16:02:31.756Z,24.28
2022-08-11T16:05:04.116Z,24.27
2022-08-11T16:07:40.624Z,23.65
2022-08-11T16:10:19.345Z,23.12
2022-08-11T16:13:16.451Z,22.52
2022-08-11T16:16:08.267Z,23.93
2022-08-11T16:18:43.922Z,22.42
2022-08-11T16:21:33.967Z,22.60
2022-08-11T16:24:08.618Z,24.24
2022-08-11T16:27:10.520Z,24.14
2022-08-11T16:29:44.365Z,24.82
2022-08-11T16:32:18.069Z,24.49
2022-08-11T16:35:07.502Z,23.92
2022-08-11T16:37:56.210Z,23.86
2022-08-11T16:40:26.861Z,23.84
2022-08-11T16:43:15.947Z,23.33
2022-08-11T16:46:04.286Z,24.19
2022-08-11T16:48:38.771Z,23.69
2022-08-11T16:51:09.541Z,23.49
2022-08-11T16:53:54.800Z,23.66
2022-08-11T16:56:33.351Z,23.94
2022-08-11T16:59:14.716Z,23.96
2022-08-11T17:01:48.777Z,24.37
2022-08-11T17:04:49.930Z,24.03
2022-08-11T17:07:42.010Z,25.90
2022-08-11T17:10:50.765Z,24.52
2022-08-11T17:13:38.623Z,25.64
2022-08-11T17:16:13.244Z,25.03
2022-08-11T17:18:52.425Z,25.24
2022-08-11T17:21:27.484Z,25.18
2022-08-11T17:24:06.433Z,25.88
2022-08-11T17:26:58.271Z,26.72
2022-08-11T17:29:34.043Z,26.01
2022-08-11T17:32:56.237Z,26.83
2022-08-11T17:35:34.682Z,27.22
2022-08-11T17:38:11.097Z,27.36
2022-08-11T17:41:04.666Z,27.81
2022-08-11T17:43:52.375Z,27.94
2022-08-11T17:46:40.507Z,27.84
2022-08-11T17:49:13.969Z,28.66
2022-08-11T17:52:19.293Z,28.39
2022-08-11T17:55:10.337Z,29.23
2022-08-11T17:58:01.726Z,28.91
2022-08-11T18:00:32.446Z,29.43
2022-08-11T18:03:20.501Z,28.98
2022-08-11T18:05:51.151Z,29.83
2022-08-11T18:08:39.752Z,30.17
2022-08-11T18:12:06.921Z,29.75
2022-08-11T18:14:39.507Z,30.70
2022-08-11T18:17:25.927Z,30.66
2022-08-11T18:20:12.808Z,31.24
2022-08-11T18:23:05.973Z,31.44
2022-08-11T18:25:59.544Z,31.67
2022-08-11T18:28:56.398Z,31.80
2022-08-11T18:31:44.813Z,32.59
2022-08-11T18:34:40.402Z,32.33
2022-08-11T18:37:38.138Z,33.64
2022-08-11T18:40:30.565Z,33.65
2022-08-11T18:43:27.314Z,34.65
2022-08-11T18:46:23.405Z,34.94
2022-08-11T18:49:20.354Z,35.56
2022-08-11T18:52:13.633Z,35.44
2022-08-11T18:55:05.413Z,35.84
2022-08-11T18:57:58.711Z,36.21
2022-08-11T19:00:46.745Z,36.28
2022-08-11T19:03:43.537Z,36.43
2022-08-11T19:06:40.551Z,37.12
2022-08-11T19:09:32.515Z,37.46
2022-08-11T19:12:21.306Z,37.53
2022-08-11T19:15:11.417Z,38.03
2022-08-11T19:18:03.025Z,38.47
2022-08-11T19:20:53.605Z,39.10
2022-08-11T19:23:50.298Z,39.15
2022-08-11T19:26:38.711Z,39.66
2022-08-11T19:30:11.867Z,39.82
2022-08-11T19:32:35.242Z,40.26
2022-08-11T19:35:30.790Z,40.38
2022-08-11T19:38:21.607Z,40.59
2022-08-11T19:41:10.919Z,40.61
2022-08-11T19:43:59.880Z,40.86
2022-08-11T19:46:46.742Z,41.19
2022-08-11T19:49:35.811Z,41.80
2022-08-11T19:52:27.060Z,41.96
2022-08-11T19:55:17.201Z,42.41
2022-08-11T19:58:05.030Z,42.80
2022-08-11T20:00:52.945Z,43.11
2022-08-11T20:03:39.776Z,42.74
2022-08-11T20:06:34.414Z,43.09
2022-08-11T20:09:23.445Z,43.26
2022-08-11T20:12:18.364Z,43.63
2022-08-11T20:15:13.506Z,44.14
2022-08-11T20:18:01.413Z,43.85
2022-08-11T20:20:49.311Z,44.15
2022-08-11T20:23:36.828Z,44.30
2022-08-11T20:26:31.104Z,44.37
2022-08-11T20:29:21.578Z,44.71
2022-08-11T20:32:09.691Z,44.82
2022-08-11T20:34:59.146Z,45.11
2022-08-11T20:37:51.096Z,45.63
2022-08-11T20:40:43.894Z,45.99
2022-08-11T20:44:08.284Z,45.92
2022-08-11T20:46:50.172Z,45.67
2022-08-11T20:49:50.607Z,46.38
2022-08-11T20:52:49.202Z,46.29
2022-08-11T20:55:51.956Z,47.10
2022-08-11T20:59:13.726Z,47.37
2022-08-11T21:01:57.785Z,47.06
2022-08-11T21:04:54.047Z,47.13
2022-08-11T21:07:57.064Z,47.54
2022-08-11T21:10:51.679Z,47.42
2022-08-11T21:13:46.067Z,47.34
2022-08-11T21:16:38.222Z,48.26
2022-08-11T21:19:59.825Z,48.09
2022-08-11T21:22:59.102Z,48.44
2022-08-11T21:25:59.309Z,48.67
2022-08-11T21:28:48.075Z,49.11
2022-08-11T21:31:37.155Z,49.50
2022-08-11T21:34:27.117Z,49.73
2022-08-11T21:37:13.828Z,49.41
2022-08-11T21:40:03.470Z,50.55
2022-08-11T21:42:55.400Z,50.93
2022-08-11T21:45:44.317Z,50.23
2022-08-11T21:48:32.145Z,51.39
2022-08-11T21:51:20.325Z,51.52
2022-08-11T21:54:08.527Z,52.25
2022-08-11T21:56:57.513Z,52.78
2022-08-11T22:00:06.325Z,53.43
2022-08-11T22:02:53.956Z,53.79
2022-08-11T22:05:41.588Z,54.12
2022-08-11T22:08:30.543Z,54.81
2022-08-11T22:11:32.095Z,54.38
2022-08-11T22:14:20.034Z,54.76
2022-08-11T22:17:06.986Z,55.33
2022-08-11T22:19:56.219Z,55.94
2022-08-11T22:22:52.059Z,56.44
2022-08-11T22:25:48.225Z,57.17
2022-08-11T22:28:38.966Z,57.36
2022-08-11T22:31:27.569Z,58.11
2022-08-11T22:34:14.367Z,57.61
2022-08-11T22:37:03.243Z,58.32
2022-08-11T22:39:59.935Z,58.98
2022-08-11T22:42:51.260Z,59.15
2022-08-11T22:45:39.042Z,60.27
2022-08-11T22:48:28.204Z,60.66
2022-08-11T22:51:17.944Z,60.26
2022-08-11T22:54:07.103Z,61.19
2022-08-11T22:56:53.956Z,61.60
2022-08-11T22:59:43.173Z,61.98
2022-08-11T23:02:30.549Z,61.89
2022-08-11T23:05:18.350Z,61.86
2022-08-11T23:08:05.358Z,63.10
2022-08-11T23:10:53.407Z,63.75
2022-08-11T23:13:41.608Z,64.62
2022-08-11T23:16:30.103Z,63.75
2022-08-11T23:20:11.269Z,64.79
2022-08-11T23:22:24.234Z,64.91
2022-08-11T23:25:27.476Z,65.67
2022-08-11T23:28:17.560Z,66.14
2022-08-11T23:31:05.113Z,66.95
2022-08-11T23:33:58.131Z,66.49
2022-08-11T23:36:47.468Z,65.75
2022-08-11T23:39:35.780Z,66.74
2022-08-11T23:42:24.144Z,68.42
2022-08-11T23:45:11.062Z,68.62
2022-08-11T23:48:00.397Z,68.94
2022-08-11T23:50:48.573Z,69.60
2022-08-11T23:53:36.345Z,68.43
2022-08-11T23:56:24.416Z,70.30
2022-08-11T23:59:16.671Z,70.81
